createdAt,value
2018-07-16T00:00:14.323Z,45.70
2018-07-16T00:02:42.041Z,47.70
2018-07-16T00:05:09.788Z,47.90
2018-07-16T00:07:37.479Z,47.80
2018-07-16T00:10:05.150Z,47.70
2018-07-16T00:12:32.819Z,47.60
2018-07-16T00:15:00.534Z,47.30
2018-07-16T00:17:28.201Z,47.10
2018-07-16T00:19:55.881Z,47.10
2018-07-16T00:22:23.571Z,47.20
2018-07-16T00:24:51.294Z,47.10
2018-07-16T00:27:19.035Z,47.00
2018-07-16T00:29:46.760Z,46.70
2018-07-16T00:32:14.525Z,46.80
2018-07-16T00:34:42.265Z,46.30
2018-07-16T00:37:09.966Z,45.70
2018-07-16T00:39:37.666Z,45.90
2018-07-16T00:42:05.348Z,46.00
2018-07-16T00:44:33.056Z,46.20
2018-07-16T00:47:00.749Z,46.40
2018-07-16T00:51:56.214Z,46.50
2018-07-16T00:54:23.919Z,46.70
2018-07-16T00:56:51.672Z,47.00
2018-07-16T00:59:19.351Z,47.50
2018-07-16T01:01:47.061Z,47.50
2018-07-16T01:04:14.723Z,48.00
2018-07-16T01:06:42.448Z,48.20
2018-07-16T01:09:10.150Z,48.50
2018-07-16T01:11:37.918Z,48.60
2018-07-16T01:14:05.651Z,48.50
2018-07-16T01:16:33.322Z,49.00
2018-07-16T01:19:01.015Z,48.90
2018-07-16T01:21:28.742Z,48.70
2018-07-16T01:26:24.341Z,48.90
2018-07-16T01:28:52.001Z,49.00
2018-07-16T01:31:19.776Z,49.20
2018-07-16T01:33:47.446Z,49.40
2018-07-16T01:36:15.163Z,49.80
2018-07-16T01:38:42.839Z,49.80
2018-07-16T01:41:10.542Z,49.70
2018-07-16T01:43:38.238Z,50.10
2018-07-16T01:46:05.935Z,50.30
2018-07-16T01:48:34.116Z,50.50
2018-07-16T01:51:01.832Z,50.80
2018-07-16T01:53:29.515Z,50.80
2018-07-16T01:55:57.219Z,50.90
2018-07-16T01:58:24.926Z,50.70
2018-07-16T02:00:57.907Z,50.80
2018-07-16T02:03:27.489Z,50.90
2018-07-16T02:05:55.253Z,51.10
2018-07-16T02:08:23.848Z,51.10
2018-07-16T02:10:51.846Z,51.80
2018-07-16T02:13:19.810Z,50.80
2018-07-16T02:15:47.554Z,51.20
2018-07-16T02:18:15.328Z,51.40
2018-07-16T02:20:43.677Z,51.40
2018-07-16T02:23:11.443Z,51.40
2018-07-16T02:25:39.264Z,53.20
2018-07-16T02:28:07.483Z,51.10
2018-07-16T02:30:35.268Z,51.30
2018-07-16T02:33:02.997Z,51.00
2018-07-16T02:35:30.798Z,50.90
2018-07-16T02:37:58.531Z,51.00
2018-07-16T02:40:26.255Z,51.40
2018-07-16T02:42:54.090Z,51.00
2018-07-16T02:45:21.787Z,51.20
2018-07-16T02:47:49.838Z,51.40
2018-07-16T02:50:17.570Z,51.60
2018-07-16T02:52:45.369Z,51.90
2018-07-16T02:55:13.158Z,51.80
2018-07-16T02:57:40.874Z,52.10
2018-07-16T03:00:08.689Z,52.30
2018-07-16T03:02:37.551Z,52.30
2018-07-16T03:05:05.583Z,52.20
2018-07-16T03:07:34.724Z,52.00
2018-07-16T03:10:02.539Z,51.80
2018-07-16T03:12:30.245Z,51.50
2018-07-16T03:14:58.221Z,51.70
2018-07-16T03:17:26.027Z,51.80
2018-07-16T03:19:53.740Z,52.00
2018-07-16T03:22:21.421Z,51.90
2018-07-16T03:24:49.077Z,52.00
2018-07-16T03:27:16.805Z,52.00
2018-07-16T03:29:44.485Z,52.00
2018-07-16T03:32:12.165Z,52.20
2018-07-16T03:34:39.845Z,52.00
2018-07-16T03:37:07.618Z,52.00
2018-07-16T03:39:35.278Z,52.10
2018-07-16T03:42:02.970Z,52.00
2018-07-16T03:44:30.621Z,51.90
2018-07-16T03:46:58.283Z,51.70
2018-07-16T03:49:25.994Z,51.60
2018-07-16T03:51:53.663Z,51.50
2018-07-16T03:54:21.296Z,51.60
2018-07-16T03:56:49.021Z,51.50
2018-07-16T03:59:16.705Z,51.60
2018-07-16T04:01:44.620Z,51.70
2018-07-16T04:04:12.429Z,51.60
2018-07-16T04:06:40.187Z,51.70
2018-07-16T04:09:08.119Z,52.10
2018-07-16T04:11:36.116Z,52.20
2018-07-16T04:14:03.865Z,52.10
2018-07-16T04:16:31.603Z,52.40
2018-07-16T04:18:59.290Z,52.50
2018-07-16T04:21:26.977Z,53.20
2018-07-16T04:23:54.685Z,52.40
2018-07-16T04:26:22.499Z,52.60
2018-07-16T04:28:50.193Z,52.50
2018-07-16T04:31:18.219Z,52.30
2018-07-16T04:33:45.914Z,52.30
2018-07-16T04:36:13.632Z,52.00
2018-07-16T04:38:41.307Z,52.20
2018-07-16T04:41:09.124Z,54.30
2018-07-16T04:43:36.891Z,52.20
2018-07-16T04:46:04.658Z,52.10
2018-07-16T04:48:32.323Z,52.00
2018-07-16T04:51:00.087Z,54.60
2018-07-16T04:53:27.778Z,52.10
2018-07-16T04:55:55.661Z,51.90
2018-07-16T04:58:23.383Z,51.80
2018-07-16T05:00:51.069Z,51.40
2018-07-16T05:03:18.727Z,51.40
2018-07-16T05:05:46.418Z,51.30
2018-07-16T05:08:14.069Z,51.20
2018-07-16T05:10:41.777Z,51.00
2018-07-16T05:13:09.455Z,50.90
2018-07-16T05:15:37.140Z,50.70
2018-07-16T05:18:04.813Z,51.10
2018-07-16T05:20:32.465Z,51.20
2018-07-16T05:23:00.127Z,50.90
2018-07-16T05:25:27.876Z,51.10
2018-07-16T05:27:55.585Z,50.90
2018-07-16T05:30:23.309Z,51.10
2018-07-16T05:32:51.034Z,50.70
2018-07-16T05:35:18.702Z,50.80
2018-07-16T05:37:46.416Z,50.50
2018-07-16T05:40:14.174Z,50.10
2018-07-16T05:42:41.846Z,50.20
2018-07-16T05:45:09.550Z,50.20
2018-07-16T05:47:37.271Z,50.50
2018-07-16T05:50:05.060Z,50.30
2018-07-16T05:52:32.748Z,50.20
2018-07-16T05:55:00.498Z,48.10
2018-07-16T05:57:28.236Z,50.50
2018-07-16T05:59:55.935Z,50.50
2018-07-16T06:04:51.411Z,49.80
2018-07-16T06:07:19.144Z,49.90
2018-07-16T06:09:46.838Z,49.60
2018-07-16T06:12:14.549Z,49.40
2018-07-16T06:14:42.340Z,49.20
2018-07-16T06:17:10.031Z,49.70
2018-07-16T06:19:37.710Z,49.50
2018-07-16T06:22:05.548Z,49.30
2018-07-16T06:24:33.205Z,49.10
2018-07-16T06:27:00.867Z,49.00
2018-07-16T06:29:28.618Z,48.70
2018-07-16T06:31:56.281Z,48.00
2018-07-16T06:34:24.009Z,47.80
2018-07-16T06:36:51.695Z,47.50
2018-07-16T06:39:19.425Z,47.10
2018-07-16T06:41:47.090Z,46.60
2018-07-16T06:44:14.765Z,46.20
2018-07-16T06:46:43.317Z,45.50
2018-07-16T06:49:11.039Z,46.50
2018-07-16T06:51:38.792Z,45.00
2018-07-16T06:54:07.279Z,44.90
2018-07-16T06:56:36.510Z,45.00
2018-07-16T06:59:04.773Z,44.70
2018-07-16T07:01:32.785Z,44.50
2018-07-16T07:04:00.610Z,44.30
2018-07-16T07:06:29.464Z,44.30
2018-07-16T07:08:57.508Z,43.60
2018-07-16T07:11:25.846Z,43.20
2018-07-16T07:13:54.334Z,43.50
2018-07-16T07:16:22.914Z,43.60
2018-07-16T07:18:52.026Z,42.60
2018-07-16T07:21:19.770Z,42.40
2018-07-16T07:23:47.844Z,42.20
2018-07-16T07:26:17.087Z,42.10
2018-07-16T07:28:46.740Z,42.60
2018-07-16T07:31:14.780Z,42.20
2018-07-16T07:33:43.568Z,41.70
2018-07-16T07:36:12.219Z,41.40
2018-07-16T07:38:41.909Z,41.40
2018-07-16T07:41:09.979Z,41.30
2018-07-16T07:43:38.396Z,39.70
2018-07-16T07:46:07.138Z,38.90
2018-07-16T07:48:34.970Z,37.70
2018-07-16T07:51:03.267Z,38.30
2018-07-16T07:53:33.106Z,35.50
2018-07-16T07:56:01.649Z,34.60
2018-07-16T07:58:30.593Z,33.90
2018-07-16T08:00:59.811Z,33.00
2018-07-16T08:03:28.531Z,32.50
2018-07-16T08:06:02.448Z,31.60
2018-07-16T08:08:30.501Z,30.90
2018-07-16T08:10:59.388Z,30.10
2018-07-16T08:13:27.698Z,29.30
2018-07-16T08:15:55.863Z,28.80
2018-07-16T08:18:23.956Z,28.70
2018-07-16T08:20:52.255Z,27.90
2018-07-16T08:23:22.066Z,28.00
2018-07-16T08:25:50.077Z,27.50
2018-07-16T08:28:18.255Z,27.20
2018-07-16T08:30:45.979Z,26.60
2018-07-16T08:33:13.783Z,25.60
2018-07-16T08:35:41.575Z,26.70
2018-07-16T08:38:09.454Z,25.20
2018-07-16T08:40:37.431Z,24.90
2018-07-16T08:43:05.537Z,25.10
2018-07-16T08:45:33.442Z,24.50
2018-07-16T08:48:01.285Z,24.90
2018-07-16T08:50:29.187Z,23.70
2018-07-16T08:52:56.930Z,22.70
2018-07-16T08:55:24.684Z,22.80
2018-07-16T08:57:53.010Z,22.80
2018-07-16T09:00:20.884Z,23.10
2018-07-16T09:02:48.618Z,22.80
2018-07-16T09:05:16.400Z,22.70
2018-07-16T09:10:05.130Z,22.40
2018-07-16T09:12:32.841Z,22.40
2018-07-16T09:15:00.627Z,22.20
2018-07-16T09:17:28.606Z,21.80
2018-07-16T09:19:56.410Z,22.00
2018-07-16T09:22:24.116Z,22.20
2018-07-16T09:24:51.910Z,22.70
2018-07-16T09:27:19.757Z,21.80
2018-07-16T09:29:47.475Z,21.90
2018-07-16T09:32:15.150Z,21.60
2018-07-16T09:34:42.830Z,21.00
2018-07-16T09:37:10.526Z,21.20
2018-07-16T09:39:38.251Z,21.00
2018-07-16T09:42:05.956Z,21.10
2018-07-16T09:44:33.668Z,21.60
2018-07-16T09:47:01.402Z,22.60
2018-07-16T09:49:29.049Z,22.20
2018-07-16T09:51:56.776Z,21.20
2018-07-16T09:54:24.455Z,20.60
2018-07-16T09:56:52.116Z,21.30
2018-07-16T09:59:19.773Z,21.20
2018-07-16T10:01:53.087Z,21.40
2018-07-16T10:04:20.783Z,20.00
2018-07-16T10:06:48.458Z,20.40
2018-07-16T10:09:16.151Z,20.00
2018-07-16T10:11:43.832Z,20.20
2018-07-16T10:14:11.486Z,20.20
2018-07-16T10:16:39.215Z,19.30
2018-07-16T10:19:06.895Z,19.00
2018-07-16T10:21:34.599Z,18.90
2018-07-16T10:24:02.257Z,18.50
2018-07-16T10:26:29.955Z,18.70
2018-07-16T10:28:57.767Z,19.10
2018-07-16T10:31:25.821Z,18.20
2018-07-16T10:33:53.719Z,18.10
2018-07-16T10:36:21.636Z,18.00
2018-07-16T10:38:49.391Z,17.50
2018-07-16T10:41:17.065Z,17.80
2018-07-16T10:43:44.736Z,17.20
2018-07-16T10:46:12.436Z,17.30
2018-07-16T10:48:40.146Z,17.20
2018-07-16T10:51:07.839Z,17.70
2018-07-16T10:53:35.534Z,17.60
2018-07-16T10:56:03.247Z,17.80
2018-07-16T10:58:31.426Z,17.50
2018-07-16T11:00:59.178Z,17.20
2018-07-16T11:03:27.358Z,16.90
2018-07-16T11:05:57.425Z,16.60
2018-07-16T11:08:25.121Z,16.90
2018-07-16T11:10:52.763Z,16.40
2018-07-16T11:13:20.430Z,16.70
2018-07-16T11:15:48.110Z,16.00
2018-07-16T11:18:15.832Z,15.80
2018-07-16T11:20:43.554Z,15.60
2018-07-16T11:23:11.210Z,15.20
2018-07-16T11:25:38.939Z,15.60
2018-07-16T11:28:06.598Z,15.30
2018-07-16T11:30:34.306Z,15.20
2018-07-16T11:33:02.056Z,15.60
2018-07-16T11:35:29.804Z,15.50
2018-07-16T11:37:57.520Z,15.10
2018-07-16T11:40:25.193Z,15.10
2018-07-16T11:42:53.186Z,15.80
2018-07-16T11:45:20.896Z,15.40
2018-07-16T11:47:48.618Z,15.90
2018-07-16T11:50:16.336Z,16.50
2018-07-16T11:52:44.056Z,15.90
2018-07-16T11:55:11.796Z,15.80
2018-07-16T11:57:39.469Z,15.90
2018-07-16T12:00:07.203Z,17.10
2018-07-16T12:02:34.903Z,16.00
2018-07-16T12:05:02.681Z,15.30
2018-07-16T12:07:30.336Z,15.00
2018-07-16T12:09:58.006Z,14.80
2018-07-16T12:12:25.860Z,14.50
2018-07-16T12:14:53.419Z,14.70
2018-07-16T12:17:21.114Z,14.70
2018-07-16T12:19:48.814Z,15.00
2018-07-16T12:22:16.497Z,14.90
2018-07-16T12:24:44.173Z,14.80
2018-07-16T12:27:11.857Z,13.80
2018-07-16T12:29:39.557Z,13.60
2018-07-16T12:32:07.396Z,13.50
2018-07-16T12:34:35.070Z,13.60
2018-07-16T12:37:02.818Z,13.50
2018-07-16T12:39:30.707Z,13.50
2018-07-16T12:41:58.415Z,13.30
2018-07-16T12:44:26.115Z,13.30
2018-07-16T12:46:53.829Z,13.20
2018-07-16T12:49:21.870Z,13.70
2018-07-16T12:51:49.552Z,13.50
2018-07-16T12:54:17.181Z,13.60
2018-07-16T12:56:44.974Z,13.90
2018-07-16T12:59:12.626Z,14.30
2018-07-16T13:01:40.270Z,14.40
2018-07-16T13:04:07.938Z,13.70
2018-07-16T13:06:35.605Z,14.10
2018-07-16T13:09:03.954Z,14.30
2018-07-16T13:11:31.662Z,13.80
2018-07-16T13:13:59.349Z,14.10
2018-07-16T13:16:27.033Z,14.90
2018-07-16T13:18:54.726Z,14.30
2018-07-16T13:21:22.387Z,14.40
2018-07-16T13:23:50.058Z,14.50
2018-07-16T13:26:17.839Z,15.00
2018-07-16T13:28:45.534Z,15.00
2018-07-16T13:31:13.226Z,15.40
2018-07-16T13:33:40.963Z,14.40
2018-07-16T13:36:08.631Z,14.30
2018-07-16T13:38:36.428Z,14.70
2018-07-16T13:41:04.146Z,13.90
2018-07-16T13:43:32.039Z,14.10
2018-07-16T13:45:59.711Z,14.20
2018-07-16T13:48:27.382Z,14.30
2018-07-16T13:50:55.098Z,14.30
2018-07-16T13:53:23.117Z,13.60
2018-07-16T13:55:50.810Z,13.70
2018-07-16T13:58:18.603Z,13.60
2018-07-16T14:00:46.768Z,13.20
2018-07-16T14:03:14.429Z,13.10
2018-07-16T14:05:42.130Z,13.00
2018-07-16T14:08:09.790Z,13.00
2018-07-16T14:10:37.444Z,13.10
2018-07-16T14:13:05.415Z,13.10
2018-07-16T14:15:33.088Z,13.60
2018-07-16T14:18:00.736Z,13.80
2018-07-16T14:20:28.397Z,13.30
2018-07-16T14:22:56.059Z,13.20
2018-07-16T14:25:23.721Z,13.40
2018-07-16T14:27:51.361Z,13.40
2018-07-16T14:30:19.079Z,14.10
2018-07-16T14:32:46.719Z,14.00
2018-07-16T14:35:14.435Z,13.60
2018-07-16T14:37:42.091Z,13.70
2018-07-16T14:40:09.865Z,14.20
2018-07-16T14:42:37.484Z,13.50
2018-07-16T14:45:05.397Z,13.60
2018-07-16T14:47:33.050Z,13.20
2018-07-16T14:50:00.703Z,13.70
2018-07-16T14:52:28.365Z,13.50
2018-07-16T14:54:56.008Z,13.70
2018-07-16T14:57:23.649Z,14.60
2018-07-16T14:59:51.303Z,14.90
2018-07-16T15:02:19.011Z,15.00
2018-07-16T15:04:46.694Z,15.20
2018-07-16T15:07:14.333Z,14.30
2018-07-16T15:09:42.012Z,14.00
2018-07-16T15:12:09.690Z,13.80
2018-07-16T15:14:37.343Z,14.00
2018-07-16T15:17:05.101Z,13.90
2018-07-16T15:19:32.761Z,15.50
2018-07-16T15:22:00.427Z,15.40
2018-07-16T15:24:28.129Z,15.20
2018-07-16T15:26:55.774Z,14.30
2018-07-16T15:29:23.518Z,14.20
2018-07-16T15:31:51.243Z,13.80
2018-07-16T15:34:18.950Z,13.60
2018-07-16T15:36:46.649Z,14.90
2018-07-16T15:39:14.319Z,14.60
2018-07-16T15:41:41.983Z,14.10
2018-07-16T15:44:09.708Z,13.80
2018-07-16T15:46:37.394Z,14.00
2018-07-16T15:49:05.070Z,14.40
2018-07-16T15:54:00.428Z,14.60
2018-07-16T15:56:28.154Z,14.80
2018-07-16T15:58:55.809Z,14.90
2018-07-16T16:01:23.495Z,15.00
2018-07-16T16:03:51.181Z,14.80
2018-07-16T16:06:18.890Z,14.70
2018-07-16T16:08:46.665Z,14.80
2018-07-16T16:11:14.378Z,14.30
2018-07-16T16:16:09.745Z,14.90
2018-07-16T16:18:37.442Z,14.30
2018-07-16T16:21:05.228Z,13.90
2018-07-16T16:23:32.966Z,14.50
2018-07-16T16:26:00.644Z,14.30
2018-07-16T16:28:28.349Z,14.10
2018-07-16T16:33:23.730Z,14.00
2018-07-16T16:35:51.751Z,14.10
2018-07-16T16:38:19.458Z,14.60
2018-07-16T16:40:47.187Z,14.30
2018-07-16T16:43:14.877Z,14.10
2018-07-16T16:45:42.602Z,13.70
2018-07-16T16:48:10.293Z,13.50
2018-07-16T16:50:37.987Z,13.50
2018-07-16T16:53:05.734Z,13.60
2018-07-16T16:55:33.426Z,13.40
2018-07-16T16:58:01.134Z,13.70
2018-07-16T17:00:28.813Z,14.00
2018-07-16T17:02:56.478Z,13.80
2018-07-16T17:05:24.247Z,13.80
2018-07-16T17:07:52.057Z,13.70
2018-07-16T17:10:19.758Z,14.50
2018-07-16T17:12:47.441Z,15.00
2018-07-16T17:15:15.419Z,15.10
2018-07-16T17:17:43.149Z,15.20
2018-07-16T17:20:10.828Z,15.10
2018-07-16T17:22:38.494Z,15.10
2018-07-16T17:25:06.186Z,15.40
2018-07-16T17:27:33.893Z,15.70
2018-07-16T17:30:01.557Z,15.90
2018-07-16T17:32:29.252Z,16.30
2018-07-16T17:34:57.072Z,16.70
2018-07-16T17:37:24.731Z,17.00
2018-07-16T17:39:52.493Z,16.70
2018-07-16T17:42:20.159Z,17.10
2018-07-16T17:44:47.973Z,17.50
2018-07-16T17:47:15.639Z,17.30
2018-07-16T17:49:43.330Z,17.70
2018-07-16T17:52:11.077Z,18.30
2018-07-16T17:54:38.726Z,18.00
2018-07-16T17:57:06.615Z,18.10
2018-07-16T17:59:34.323Z,18.00
2018-07-16T18:02:02.047Z,17.90
2018-07-16T18:04:29.823Z,17.90
2018-07-16T18:06:57.590Z,17.80
2018-07-16T18:09:25.340Z,17.90
2018-07-16T18:11:53.082Z,17.90
2018-07-16T18:14:20.734Z,18.10
2018-07-16T18:16:48.482Z,18.70
2018-07-16T18:19:16.252Z,18.20
2018-07-16T18:21:44.207Z,18.40
2018-07-16T18:24:11.877Z,18.80
2018-07-16T18:26:39.644Z,18.10
2018-07-16T18:29:07.298Z,18.90
2018-07-16T18:31:35.006Z,18.30
2018-07-16T18:34:02.707Z,18.50
2018-07-16T18:38:58.122Z,18.50
2018-07-16T18:41:25.839Z,18.70
2018-07-16T18:43:54.664Z,18.70
2018-07-16T18:46:22.322Z,18.70
2018-07-16T18:48:50.087Z,18.80
2018-07-16T18:51:17.850Z,18.50
2018-07-16T18:53:45.534Z,18.50
2018-07-16T18:56:13.199Z,18.60
2018-07-16T18:58:40.880Z,18.40
2018-07-16T19:01:08.560Z,18.80
2018-07-16T19:03:36.223Z,18.90
2018-07-16T19:06:03.957Z,18.80
2018-07-16T19:08:31.700Z,18.80
2018-07-16T19:10:59.454Z,18.80
2018-07-16T19:13:27.297Z,19.10
2018-07-16T19:15:54.981Z,19.00
2018-07-16T19:18:22.750Z,19.30
2018-07-16T19:20:50.402Z,19.60
2018-07-16T19:23:18.078Z,19.60
2018-07-16T19:25:45.784Z,20.30
2018-07-16T19:28:13.459Z,20.10
2018-07-16T19:30:41.150Z,20.30
2018-07-16T19:33:08.839Z,20.60
2018-07-16T19:35:36.557Z,20.80
2018-07-16T19:38:04.171Z,21.00
2018-07-16T19:40:31.843Z,21.00
2018-07-16T19:42:59.559Z,21.20
2018-07-16T19:45:27.222Z,21.60
2018-07-16T19:47:54.886Z,21.90
2018-07-16T19:50:22.559Z,22.40
2018-07-16T19:52:50.290Z,22.60
2018-07-16T19:55:18.066Z,22.90
2018-07-16T19:57:45.776Z,23.00
2018-07-16T20:00:13.399Z,23.30
2018-07-16T20:02:41.060Z,23.60
2018-07-16T20:05:08.716Z,24.00
2018-07-16T20:07:36.375Z,24.40
2018-07-16T20:10:04.099Z,24.70
2018-07-16T20:12:33.186Z,24.70
2018-07-16T20:15:01.708Z,25.30
2018-07-16T20:17:29.609Z,25.20
2018-07-16T20:19:57.999Z,25.40
2018-07-16T20:22:25.869Z,25.70
2018-07-16T20:24:53.549Z,26.40
2018-07-16T20:27:21.219Z,25.90
2018-07-16T20:32:16.950Z,26.30
2018-07-16T20:34:44.630Z,26.60
2018-07-16T20:37:12.311Z,26.80
2018-07-16T20:39:40.098Z,26.60
2018-07-16T20:42:07.779Z,26.90
2018-07-16T20:44:35.459Z,26.40
2018-07-16T20:47:03.135Z,28.20
2018-07-16T20:49:30.811Z,27.10
2018-07-16T20:51:58.525Z,27.40
2018-07-16T20:54:26.230Z,27.50
2018-07-16T20:56:53.902Z,28.60
2018-07-16T20:59:21.698Z,27.80
2018-07-16T21:01:49.417Z,28.40
2018-07-16T21:04:17.117Z,27.80
2018-07-16T21:06:44.873Z,28.40
2018-07-16T21:09:12.548Z,28.20
2018-07-16T21:11:40.219Z,28.40
2018-07-16T21:14:07.938Z,28.50
2018-07-16T21:16:35.666Z,29.40
2018-07-16T21:19:03.335Z,28.50
2018-07-16T21:21:30.987Z,29.20
2018-07-16T21:23:58.681Z,30.10
2018-07-16T21:26:26.394Z,29.90
2018-07-16T21:28:54.088Z,30.20
2018-07-16T21:31:21.740Z,30.40
2018-07-16T21:33:49.491Z,30.40
2018-07-16T21:36:17.167Z,30.60
2018-07-16T21:38:44.853Z,30.70
2018-07-16T21:41:12.551Z,30.40
2018-07-16T21:43:40.208Z,30.10
2018-07-16T21:46:08.194Z,30.20
2018-07-16T21:48:35.901Z,30.20
2018-07-16T21:51:03.606Z,30.30
2018-07-16T21:53:31.283Z,30.20
2018-07-16T21:55:58.935Z,30.00
2018-07-16T21:58:26.590Z,30.30
2018-07-16T22:00:54.343Z,30.20
2018-07-16T22:03:22.007Z,30.10
2018-07-16T22:05:49.749Z,30.60
2018-07-16T22:08:17.647Z,30.50
2018-07-16T22:10:45.367Z,31.60
2018-07-16T22:13:13.035Z,32.30
2018-07-16T22:18:08.435Z,33.20
2018-07-16T22:20:36.114Z,32.60
2018-07-16T22:23:03.813Z,32.70
2018-07-16T22:25:31.490Z,32.50
2018-07-16T22:27:59.158Z,31.90
2018-07-16T22:30:26.859Z,32.50
2018-07-16T22:32:54.485Z,33.30
2018-07-16T22:35:22.159Z,34.00
2018-07-16T22:37:49.970Z,34.60
2018-07-16T22:40:17.685Z,35.80
2018-07-16T22:42:45.355Z,36.00
2018-07-16T22:45:13.056Z,36.10
2018-07-16T22:47:40.732Z,36.20
2018-07-16T22:50:08.438Z,36.40
2018-07-16T22:52:36.094Z,36.60
2018-07-16T22:55:03.786Z,36.70
2018-07-16T22:57:31.445Z,36.90
2018-07-16T22:59:59.110Z,36.90
2018-07-16T23:02:26.838Z,37.10
2018-07-16T23:04:54.706Z,37.10
2018-07-16T23:07:22.395Z,37.20
2018-07-16T23:09:50.082Z,37.20
2018-07-16T23:12:17.770Z,37.20
2018-07-16T23:14:45.474Z,37.40
2018-07-16T23:17:13.142Z,37.50
2018-07-16T23:19:40.815Z,37.70
2018-07-16T23:22:08.506Z,37.90
2018-07-16T23:24:36.198Z,38.10
2018-07-16T23:27:04.067Z,38.50
2018-07-16T23:29:31.799Z,38.70
2018-07-16T23:31:59.486Z,38.70
2018-07-16T23:34:27.125Z,38.80
2018-07-16T23:36:54.789Z,39.10
2018-07-16T23:39:22.502Z,39.40
2018-07-16T23:41:50.228Z,39.60
2018-07-16T23:44:17.919Z,39.60
2018-07-16T23:46:45.605Z,39.60
2018-07-16T23:49:13.305Z,39.70
2018-07-16T23:51:40.988Z,40.30
2018-07-16T23:54:08.705Z,40.20
2018-07-16T23:56:36.390Z,40.10
2018-07-16T23:59:04.103Z,40.20
